sensor_id;sensor_type;location;lat;lon;timestamp;P1;durP1;ratioP1;P2;durP2;ratioP2
4053;SDS011;2042;47.956;9.222;2023-09-07T00:05:45;10.05;;;7.60;;
4053;SDS011;2042;47.956;9.222;2023-09-07T00:13:03;11.10;;;8.30;;
4053;SDS011;2042;47.956;9.222;2023-09-07T01:51:08;9.50;;;7.15;;
4053;SDS011;2042;47.956;9.222;2023-09-07T01:53:34;8.07;;;6.97;;
4053;SDS011;2042;47.956;9.222;2023-09-07T01:56:00;8.63;;;7.07;;
4053;SDS011;2042;47.956;9.222;2023-09-07T01:58:25;8.53;;;6.87;;
4053;SDS011;2042;47.956;9.222;2023-09-07T02:00:57;9.03;;;7.73;;
4053;SDS011;2042;47.956;9.222;2023-09-07T02:03:23;9.93;;;6.37;;
4053;SDS011;2042;47.956;9.222;2023-09-07T02:05:49;10.55;;;7.00;;
4053;SDS011;2042;47.956;9.222;2023-09-07T02:08:15;9.20;;;6.17;;
4053;SDS011;2042;47.956;9.222;2023-09-07T02:10:41;7.50;;;6.57;;
4053;SDS011;2042;47.956;9.222;2023-09-07T02:13:07;8.70;;;7.50;;
4053;SDS011;2042;47.956;9.222;2023-09-07T02:15:33;8.70;;;6.15;;
4053;SDS011;2042;47.956;9.222;2023-09-07T02:27:46;7.10;;;6.40;;
4053;SDS011;2042;47.956;9.222;2023-09-07T02:37:29;6.90;;;6.20;;
4053;SDS011;2042;47.956;9.222;2023-09-07T02:39:55;10.50;;;6.40;;
4053;SDS011;2042;47.956;9.222;2023-09-07T02:42:21;8.60;;;7.10;;
4053;SDS011;2042;47.956;9.222;2023-09-07T02:44:47;8.15;;;7.35;;
4053;SDS011;2042;47.956;9.222;2023-09-07T02:47:13;7.60;;;6.70;;
4053;SDS011;2042;47.956;9.222;2023-09-07T02:49:38;6.75;;;6.05;;
4053;SDS011;2042;47.956;9.222;2023-09-07T02:52:04;6.50;;;5.80;;
4053;SDS011;2042;47.956;9.222;2023-09-07T02:54:30;9.55;;;6.40;;
4053;SDS011;2042;47.956;9.222;2023-09-07T02:56:56;7.15;;;6.35;;
4053;SDS011;2042;47.956;9.222;2023-09-07T02:59:21;10.20;;;6.90;;
4053;SDS011;2042;47.956;9.222;2023-09-07T03:01:47;6.60;;;5.90;;
4053;SDS011;2042;47.956;9.222;2023-09-07T03:04:12;8.65;;;6.55;;
4053;SDS011;2042;47.956;9.222;2023-09-07T03:06:38;7.40;;;6.60;;
4053;SDS011;2042;47.956;9.222;2023-09-07T03:09:04;9.00;;;7.50;;
4053;SDS011;2042;47.956;9.222;2023-09-07T03:11:34;8.65;;;7.40;;
4053;SDS011;2042;47.956;9.222;2023-09-07T03:14:00;7.30;;;6.10;;
4053;SDS011;2042;47.956;9.222;2023-09-07T03:16:25;6.50;;;5.90;;
4053;SDS011;2042;47.956;9.222;2023-09-07T03:18:52;9.70;;;6.20;;
4053;SDS011;2042;47.956;9.222;2023-09-07T03:21:17;6.60;;;5.80;;
4053;SDS011;2042;47.956;9.222;2023-09-07T03:23:43;8.70;;;6.60;;
4053;SDS011;2042;47.956;9.222;2023-09-07T03:26:10;7.35;;;5.40;;
4053;SDS011;2042;47.956;9.222;2023-09-07T03:28:36;8.60;;;6.40;;
4053;SDS011;2042;47.956;9.222;2023-09-07T03:31:01;6.95;;;5.70;;
4053;SDS011;2042;47.956;9.222;2023-09-07T03:33:27;8.20;;;6.80;;
4053;SDS011;2042;47.956;9.222;2023-09-07T03:35:53;8.90;;;6.00;;
4053;SDS011;2042;47.956;9.222;2023-09-07T03:38:23;8.30;;;6.30;;
4053;SDS011;2042;47.956;9.222;2023-09-07T03:40:50;8.05;;;5.95;;
4053;SDS011;2042;47.956;9.222;2023-09-07T03:43:15;11.10;;;6.20;;
4053;SDS011;2042;47.956;9.222;2023-09-07T03:48:08;7.70;;;6.25;;
4053;SDS011;2042;47.956;9.222;2023-09-07T03:50:34;6.60;;;5.50;;
4053;SDS011;2042;47.956;9.222;2023-09-07T03:55:26;8.70;;;6.50;;
4053;SDS011;2042;47.956;9.222;2023-09-07T03:57:51;7.50;;;5.25;;
4053;SDS011;2042;47.956;9.222;2023-09-07T04:00:17;7.60;;;6.60;;
4053;SDS011;2042;47.956;9.222;2023-09-07T04:02:43;7.20;;;6.50;;
4053;SDS011;2042;47.956;9.222;2023-09-07T04:05:09;14.45;;;7.00;;
4053;SDS011;2042;47.956;9.222;2023-09-07T04:07:38;8.00;;;5.55;;
4053;SDS011;2042;47.956;9.222;2023-09-07T04:10:04;8.85;;;6.55;;
4053;SDS011;2042;47.956;9.222;2023-09-07T04:12:31;7.55;;;6.70;;
4053;SDS011;2042;47.956;9.222;2023-09-07T04:14:58;6.95;;;6.25;;
4053;SDS011;2042;47.956;9.222;2023-09-07T04:19:50;6.50;;;5.80;;
4053;SDS011;2042;47.956;9.222;2023-09-07T04:24:41;8.40;;;6.40;;
4053;SDS011;2042;47.956;9.222;2023-09-07T04:27:07;8.40;;;6.70;;
4053;SDS011;2042;47.956;9.222;2023-09-07T07:42:51;8.07;;;7.37;;
4053;SDS011;2042;47.956;9.222;2023-09-07T07:48:39;8.27;;;7.57;;
4053;SDS011;2042;47.956;9.222;2023-09-07T07:51:05;8.20;;;7.60;;
4053;SDS011;2042;47.956;9.222;2023-09-07T07:53:31;8.33;;;7.63;;
4053;SDS011;2042;47.956;9.222;2023-09-07T07:55:57;8.80;;;8.00;;
4053;SDS011;2042;47.956;9.222;2023-09-07T08:01:14;8.00;;;7.40;;
4053;SDS011;2042;47.956;9.222;2023-09-07T08:03:41;10.70;;;7.47;;
4053;SDS011;2042;47.956;9.222;2023-09-07T08:06:07;7.15;;;6.55;;
4053;SDS011;2042;47.956;9.222;2023-09-07T08:08:32;7.87;;;7.17;;
4053;SDS011;2042;47.956;9.222;2023-09-07T08:10:58;7.70;;;7.00;;
4053;SDS011;2042;47.956;9.222;2023-09-07T08:13:25;7.63;;;6.83;;
4053;SDS011;2042;47.956;9.222;2023-09-07T08:15:50;8.27;;;7.57;;
4053;SDS011;2042;47.956;9.222;2023-09-07T08:18:16;7.80;;;7.20;;
4053;SDS011;2042;47.956;9.222;2023-09-07T08:20:42;7.00;;;6.40;;
4053;SDS011;2042;47.956;9.222;2023-09-07T08:23:07;8.60;;;7.90;;
4053;SDS011;2042;47.956;9.222;2023-09-07T08:25:35;7.30;;;6.70;;
4053;SDS011;2042;47.956;9.222;2023-09-07T08:28:01;7.40;;;6.80;;
4053;SDS011;2042;47.956;9.222;2023-09-07T08:30:30;8.85;;;7.20;;
4053;SDS011;2042;47.956;9.222;2023-09-07T08:32:56;7.53;;;6.60;;
4053;SDS011;2042;47.956;9.222;2023-09-07T08:35:21;7.10;;;6.50;;
4053;SDS011;2042;47.956;9.222;2023-09-07T08:37:52;7.10;;;6.50;;
4053;SDS011;2042;47.956;9.222;2023-09-07T13:01:13;4.00;;;3.60;;
4053;SDS011;2042;47.956;9.222;2023-09-07T13:03:41;4.70;;;4.13;;
4053;SDS011;2042;47.956;9.222;2023-09-07T13:06:07;4.80;;;4.22;;
4053;SDS011;2042;47.956;9.222;2023-09-07T13:08:33;5.03;;;4.70;;
4053;SDS011;2042;47.956;9.222;2023-09-07T13:10:59;4.03;;;3.72;;
4053;SDS011;2042;47.956;9.222;2023-09-07T13:13:25;3.80;;;3.30;;
4053;SDS011;2042;47.956;9.222;2023-09-07T13:15:57;3.88;;;3.58;;
4053;SDS011;2042;47.956;9.222;2023-09-07T13:18:23;3.90;;;3.60;;
4053;SDS011;2042;47.956;9.222;2023-09-07T13:20:49;4.25;;;3.95;;
4053;SDS011;2042;47.956;9.222;2023-09-07T13:23:17;3.65;;;3.45;;
4053;SDS011;2042;47.956;9.222;2023-09-07T13:25:43;3.60;;;3.30;;
4053;SDS011;2042;47.956;9.222;2023-09-07T13:28:08;4.45;;;3.80;;
4053;SDS011;2042;47.956;9.222;2023-09-07T13:30:34;6.68;;;3.63;;
4053;SDS011;2042;47.956;9.222;2023-09-07T13:33:00;4.07;;;3.70;;
4053;SDS011;2042;47.956;9.222;2023-09-07T13:35:26;4.60;;;3.38;;
4053;SDS011;2042;47.956;9.222;2023-09-07T13:37:51;4.10;;;3.80;;
4053;SDS011;2042;47.956;9.222;2023-09-07T13:40:17;3.47;;;3.28;;
4053;SDS011;2042;47.956;9.222;2023-09-07T13:42:44;3.45;;;3.22;;
4053;SDS011;2042;47.956;9.222;2023-09-07T13:45:10;4.03;;;3.72;;
4053;SDS011;2042;47.956;9.222;2023-09-07T13:47:38;4.13;;;3.72;;
4053;SDS011;2042;47.956;9.222;2023-09-07T13:50:04;3.45;;;3.15;;
4053;SDS011;2042;47.956;9.222;2023-09-07T13:52:30;5.25;;;4.85;;
4053;SDS011;2042;47.956;9.222;2023-09-07T13:54:55;3.50;;;3.30;;
4053;SDS011;2042;47.956;9.222;2023-09-07T13:57:21;3.80;;;3.45;;
4053;SDS011;2042;47.956;9.222;2023-09-07T13:59:47;4.05;;;3.72;;
4053;SDS011;2042;47.956;9.222;2023-09-07T14:02:13;3.88;;;3.67;;
4053;SDS011;2042;47.956;9.222;2023-09-07T14:04:39;3.92;;;3.60;;
4053;SDS011;2042;47.956;9.222;2023-09-07T14:07:04;4.10;;;3.80;;
4053;SDS011;2042;47.956;9.222;2023-09-07T14:09:30;4.07;;;3.78;;
4053;SDS011;2042;47.956;9.222;2023-09-07T14:11:56;4.60;;;4.20;;
4053;SDS011;2042;47.956;9.222;2023-09-07T14:14:21;4.20;;;3.90;;
4053;SDS011;2042;47.956;9.222;2023-09-07T14:16:47;4.35;;;4.05;;
4053;SDS011;2042;47.956;9.222;2023-09-07T14:19:15;4.20;;;3.80;;
4053;SDS011;2042;47.956;9.222;2023-09-07T14:21:40;4.43;;;4.03;;
4053;SDS011;2042;47.956;9.222;2023-09-07T14:24:06;4.43;;;4.03;;
4053;SDS011;2042;47.956;9.222;2023-09-07T14:26:32;4.40;;;4.07;;
4053;SDS011;2042;47.956;9.222;2023-09-07T14:28:57;4.25;;;3.95;;
4053;SDS011;2042;47.956;9.222;2023-09-07T14:31:23;4.03;;;3.72;;
4053;SDS011;2042;47.956;9.222;2023-09-07T14:33:49;5.00;;;4.68;;
4053;SDS011;2042;47.956;9.222;2023-09-07T14:36:15;4.35;;;4.05;;
4053;SDS011;2042;47.956;9.222;2023-09-07T14:38:41;4.32;;;3.92;;
4053;SDS011;2042;47.956;9.222;2023-09-07T14:41:10;4.22;;;3.92;;
4053;SDS011;2042;47.956;9.222;2023-09-07T14:43:42;4.35;;;4.05;;
4053;SDS011;2042;47.956;9.222;2023-09-07T14:46:08;4.50;;;4.10;;
4053;SDS011;2042;47.956;9.222;2023-09-07T14:48:34;5.60;;;4.18;;
4053;SDS011;2042;47.956;9.222;2023-09-07T14:50:59;4.68;;;4.38;;
4053;SDS011;2042;47.956;9.222;2023-09-07T14:53:25;4.25;;;3.88;;
4053;SDS011;2042;47.956;9.222;2023-09-07T14:55:51;11.00;;;4.40;;
4053;SDS011;2042;47.956;9.222;2023-09-07T14:58:17;4.82;;;4.53;;
4053;SDS011;2042;47.956;9.222;2023-09-07T15:00:42;7.60;;;4.35;;
4053;SDS011;2042;47.956;9.222;2023-09-07T15:03:08;4.97;;;4.40;;
4053;SDS011;2042;47.956;9.222;2023-09-07T15:05:34;4.57;;;4.28;;
4053;SDS011;2042;47.956;9.222;2023-09-07T15:08:00;5.10;;;4.78;;
4053;SDS011;2042;47.956;9.222;2023-09-07T15:10:28;5.03;;;4.72;;
4053;SDS011;2042;47.956;9.222;2023-09-07T15:12:54;6.20;;;5.80;;
4053;SDS011;2042;47.956;9.222;2023-09-07T15:15:19;6.10;;;5.60;;
4053;SDS011;2042;47.956;9.222;2023-09-07T15:17:48;6.10;;;5.50;;
4053;SDS011;2042;47.956;9.222;2023-09-07T15:20:14;6.37;;;5.77;;
4053;SDS011;2042;47.956;9.222;2023-09-07T15:22:39;6.20;;;5.60;;
4053;SDS011;2042;47.956;9.222;2023-09-07T15:25:05;7.13;;;6.53;;
4053;SDS011;2042;47.956;9.222;2023-09-07T15:27:31;7.30;;;6.70;;
4053;SDS011;2042;47.956;9.222;2023-09-07T15:29:57;10.37;;;6.77;;
4053;SDS011;2042;47.956;9.222;2023-09-07T15:32:22;7.30;;;6.70;;
4053;SDS011;2042;47.956;9.222;2023-09-07T15:34:48;8.03;;;7.10;;
